Huvudsida
METAR-TAF:

METAR-TAF

Flygplatser :

Vanua Lava, Vanuatu

latitud: 13-51-06S, longitud: 167-32-13E, höjd: 2 m

Aktuellt väderrapport

Denna rapport gjordes för 2 timmar och 37 minuter sedan, klockan 21:00 UTC
Vind 6 kt från sydost
Temperatur 28°C
Fuktighet 89%
Tryck 1010 hPa
Sikt 10 km eller mer
Brutna moln på en höjd av 2000 ft

METAR: NVSC 092100Z 13006KT 9999 BKN020 28/26 Q1010

Tid: 10:37 (23:37 UTC)

Väderprognos

Denna rapport gjordes för 7 timmar och 37 minuter sedan, klockan 16:00 UTC
Prognos gäller från 09 kl. 18 UTC till 10 kl. 18 UTC
Vind 2 kt varierande vindriktning
Sikt: 8000 m
Brutna moln på en höjd av 2000 ft
Mulet på en höjd av 4000 ft
Brutna moln på en höjd av 1500 ft
Mulet på en höjd av 3000 ft
regnskurar

TAF: NVSC 091600Z 0918/1018 VRB02KT 9999 BKN020 OVC040 INTER 0918/0924 8000 SHRA BKN015 OVC030

Aktuella väderrapporter och prognoser från 4000 flygplatser (METAR- och TAF-rapporter).

De tillgängliga stationerna syns som gula och röda prickar på kartan.

För musen över prickarna för att se namnen på stationerna.

Klicka sedan för att få väderrapporter och prognoser.

För att ändra kartan: Klicka på de gröna knapparna med ett svart kors på för att zooma in; den gröna knappen med ett streck på för att zooma ut; eller på de gröna pilarna för angränsande kartor.


METAR-TAF: